createdAt,value
2022-08-14T00:01:32.968Z,97873.56
2022-08-14T00:04:31.856Z,97878.97
2022-08-14T00:07:21.036Z,97871.63
2022-08-14T00:10:49.954Z,97878.63
2022-08-14T00:13:23.489Z,97867.91
2022-08-14T00:16:40.992Z,97867.75
2022-08-14T00:19:24.618Z,97857.38
2022-08-14T00:22:44.239Z,97851.41
2022-08-14T00:25:41.503Z,97859.81
2022-08-14T00:28:34.990Z,97850.06
2022-08-14T00:31:35.057Z,97849.66
2022-08-14T00:34:37.817Z,97853.78
2022-08-14T00:37:35.988Z,97845.53
2022-08-14T00:40:33.535Z,97836.44
2022-08-14T00:43:24.218Z,97831.31
2022-08-14T00:46:32.317Z,97836.28
2022-08-14T00:49:21.576Z,97833.00
2022-08-14T00:52:14.039Z,97835.13
2022-08-14T00:55:08.159Z,97837.72
2022-08-14T00:58:10.682Z,97830.34
2022-08-14T01:00:59.696Z,97834.84
2022-08-14T01:03:52.985Z,97832.63
2022-08-14T01:06:42.451Z,97830.06
2022-08-14T01:09:33.467Z,97832.03
2022-08-14T01:12:27.193Z,97833.06
2022-08-14T01:15:31.638Z,97825.81
2022-08-14T01:19:01.026Z,97838.19
2022-08-14T01:21:53.268Z,97827.16
2022-08-14T01:24:43.367Z,97829.16
2022-08-14T01:27:31.897Z,97823.47
2022-08-14T01:30:42.172Z,97828.03
2022-08-14T01:33:59.248Z,97823.22
2022-08-14T01:36:41.178Z,97810.84
2022-08-14T01:39:33.590Z,97816.06
2022-08-14T01:42:31.081Z,97819.13
2022-08-14T01:45:25.598Z,97823.84
2022-08-14T01:48:16.246Z,97821.44
2022-08-14T01:51:19.008Z,97819.09
2022-08-14T01:54:14.278Z,97806.53
2022-08-14T01:57:04.324Z,97809.72
2022-08-14T01:59:57.704Z,97819.75
2022-08-14T02:02:46.807Z,97807.28
2022-08-14T02:05:38.347Z,97826.94
2022-08-14T02:08:35.308Z,97818.75
2022-08-14T02:11:24.842Z,97805.97
2022-08-14T02:14:15.797Z,97810.25
2022-08-14T02:17:23.265Z,97803.66
2022-08-14T02:20:14.050Z,97807.81
2022-08-14T02:23:02.786Z,97801.97
2022-08-14T02:25:54.630Z,97799.97
2022-08-14T02:28:58.528Z,97803.09
2022-08-14T02:31:51.709Z,97799.97
2022-08-14T02:34:41.427Z,97812.22
2022-08-14T02:37:47.680Z,97805.44
2022-08-14T02:40:38.112Z,97803.84
2022-08-14T02:43:36.453Z,97800.03
2022-08-14T02:46:32.043Z,97803.06
2022-08-14T02:49:33.060Z,97793.44
2022-08-14T02:52:55.535Z,97805.44
2022-08-14T02:55:33.128Z,97810.91
2022-08-14T02:58:30.599Z,97801.81
2022-08-14T03:01:22.278Z,97797.59
2022-08-14T03:04:13.269Z,97791.34
2022-08-14T03:07:07.487Z,97798.88
2022-08-14T03:10:25.370Z,97801.13
2022-08-14T03:13:06.324Z,97804.66
2022-08-14T03:16:02.790Z,97798.06
2022-08-14T03:18:59.747Z,97792.19
2022-08-14T03:21:53.021Z,97803.53
2022-08-14T03:24:42.861Z,97799.38
2022-08-14T03:27:35.171Z,97788.13
2022-08-14T03:30:40.945Z,97787.38
2022-08-14T03:33:37.469Z,97796.38
2022-08-14T03:37:39.394Z,97787.81
2022-08-14T03:39:36.259Z,97795.69
2022-08-14T03:42:35.695Z,97791.25
2022-08-14T03:45:35.466Z,97788.34
2022-08-14T03:48:30.627Z,97784.78
2022-08-14T03:51:19.812Z,97793.66
2022-08-14T03:54:09.441Z,97789.94
2022-08-14T03:57:05.472Z,97790.19
2022-08-14T03:59:55.194Z,97792.81
2022-08-14T04:02:46.770Z,97788.34
2022-08-14T04:05:43.461Z,97791.19
2022-08-14T04:08:38.371Z,97789.69
2022-08-14T04:11:30.356Z,97786.97
2022-08-14T04:14:18.892Z,97784.66
2022-08-14T04:17:09.908Z,97791.81
2022-08-14T04:20:05.459Z,97788.81
2022-08-14T04:22:54.712Z,97790.50
2022-08-14T04:25:44.375Z,97793.72
2022-08-14T04:29:08.010Z,97784.84
2022-08-14T04:33:02.396Z,97787.63
2022-08-14T04:34:55.810Z,97794.47
2022-08-14T04:38:01.599Z,97793.06
2022-08-14T04:41:14.029Z,97794.03
2022-08-14T04:44:02.585Z,97783.53
2022-08-14T04:47:09.547Z,97778.31
2022-08-14T04:50:00.292Z,97784.91
2022-08-14T04:52:53.977Z,97787.31
2022-08-14T04:55:51.395Z,97782.53
2022-08-14T04:58:40.581Z,97775.78
2022-08-14T05:01:29.510Z,97775.53
2022-08-14T05:04:28.143Z,97778.81
2022-08-14T05:07:18.006Z,97780.53
2022-08-14T05:10:32.123Z,97772.97
2022-08-14T05:13:24.587Z,97771.34
2022-08-14T05:16:18.494Z,97783.81
2022-08-14T05:19:24.944Z,97783.50
2022-08-14T05:22:19.176Z,97773.34
2022-08-14T05:25:08.535Z,97780.56
2022-08-14T05:28:00.659Z,97776.03
2022-08-14T05:30:50.754Z,97769.81
2022-08-14T05:33:40.396Z,97772.97
2022-08-14T05:36:28.974Z,97769.34
2022-08-14T05:39:20.224Z,97770.13
2022-08-14T05:42:09.962Z,97770.13
2022-08-14T05:45:11.219Z,97767.94
2022-08-14T05:48:02.379Z,97767.28
2022-08-14T05:50:51.236Z,97761.19
2022-08-14T05:53:42.375Z,97763.91
2022-08-14T05:56:32.464Z,97768.28
2022-08-14T05:59:20.968Z,97767.50
2022-08-14T06:02:25.391Z,97771.59
2022-08-14T06:05:14.018Z,97770.47
2022-08-14T06:08:08.795Z,97781.03
2022-08-14T06:11:14.880Z,97783.72
2022-08-14T06:14:12.316Z,97780.69
2022-08-14T06:17:09.611Z,97779.03
2022-08-14T06:20:05.116Z,97784.00
2022-08-14T06:22:59.676Z,97776.53
2022-08-14T06:25:52.596Z,97781.59
2022-08-14T06:28:45.448Z,97785.78
2022-08-14T06:31:35.446Z,97788.72
2022-08-14T06:35:04.522Z,97781.94
2022-08-14T06:37:41.381Z,97783.38
2022-08-14T06:40:34.217Z,97777.53
2022-08-14T06:43:27.062Z,97776.78
2022-08-14T06:46:23.051Z,97775.56
2022-08-14T06:49:22.438Z,97773.66
2022-08-14T06:52:15.116Z,97775.28
2022-08-14T06:55:04.650Z,97778.41
2022-08-14T06:57:53.396Z,97771.22
2022-08-14T07:01:02.386Z,97772.41
2022-08-14T07:04:18.845Z,97777.00
2022-08-14T07:07:13.244Z,97778.88
2022-08-14T07:10:01.647Z,97776.13
2022-08-14T07:12:56.287Z,97780.16
2022-08-14T07:15:55.327Z,97778.75
2022-08-14T07:18:43.849Z,97781.41
2022-08-14T07:21:33.428Z,97782.38
2022-08-14T07:24:30.987Z,97787.75
2022-08-14T07:27:20.170Z,97774.47
2022-08-14T07:30:33.944Z,97778.75
2022-08-14T07:33:24.726Z,97778.88
2022-08-14T07:36:29.961Z,97782.13
2022-08-14T07:39:19.403Z,97785.81
2022-08-14T07:42:20.027Z,97785.63
2022-08-14T07:45:12.171Z,97790.22
2022-08-14T07:48:00.567Z,97794.84
2022-08-14T07:50:50.842Z,97791.84
2022-08-14T07:53:41.137Z,97795.34
2022-08-14T07:56:44.274Z,97809.84
2022-08-14T07:59:41.126Z,97800.41
2022-08-14T08:02:32.938Z,97792.72
2022-08-14T08:05:24.442Z,97789.09
2022-08-14T08:08:27.013Z,97787.75
2022-08-14T08:11:19.477Z,97776.56
2022-08-14T08:14:17.607Z,97778.44
2022-08-14T08:17:07.951Z,97780.38
2022-08-14T08:19:57.415Z,97786.06
2022-08-14T08:22:48.336Z,97787.41
2022-08-14T08:25:41.439Z,97789.53
2022-08-14T08:28:31.525Z,97779.25
2022-08-14T08:31:23.134Z,97783.13
2022-08-14T08:34:23.607Z,97790.53
2022-08-14T08:37:12.885Z,97785.44
2022-08-14T08:40:03.822Z,97778.16
2022-08-14T08:42:53.365Z,97781.56
2022-08-14T08:45:45.658Z,97774.56
2022-08-14T08:48:50.466Z,97777.66
2022-08-14T08:51:43.784Z,97775.31
2022-08-14T08:54:32.056Z,97781.31
2022-08-14T08:57:21.531Z,97783.44
2022-08-14T09:00:25.172Z,97789.97
2022-08-14T09:03:17.330Z,97784.22
2022-08-14T09:06:54.022Z,97781.00
2022-08-14T09:09:23.077Z,97783.06
2022-08-14T09:12:13.996Z,97780.59
2022-08-14T09:15:11.527Z,97779.13
2022-08-14T09:18:02.207Z,97772.66
2022-08-14T09:20:52.983Z,97775.53
2022-08-14T09:24:25.985Z,97767.78
2022-08-14T09:26:57.659Z,97767.88
2022-08-14T09:29:54.221Z,97768.38
2022-08-14T09:32:59.464Z,97773.19
2022-08-14T09:36:02.928Z,97773.97
2022-08-14T09:38:59.999Z,97781.28
2022-08-14T09:42:21.988Z,97776.69
2022-08-14T09:45:24.124Z,97780.84
2022-08-14T09:48:17.554Z,97777.97
2022-08-14T09:51:09.792Z,97779.84
2022-08-14T09:54:19.165Z,97772.72
2022-08-14T09:57:27.676Z,97780.75
2022-08-14T10:00:28.334Z,97782.03
2022-08-14T10:03:34.751Z,97771.44
2022-08-14T10:06:28.138Z,97772.53
2022-08-14T10:09:17.085Z,97772.34
2022-08-14T10:12:13.298Z,97766.94
2022-08-14T10:15:20.874Z,97764.94
2022-08-14T10:18:17.266Z,97761.13
2022-08-14T10:21:09.671Z,97758.50
2022-08-14T10:23:58.282Z,97760.63
2022-08-14T10:27:00.176Z,97751.94
2022-08-14T10:29:51.184Z,97760.22
2022-08-14T10:32:51.837Z,97756.53
2022-08-14T10:35:47.907Z,97753.72
2022-08-14T10:38:38.283Z,97755.06
2022-08-14T10:41:46.485Z,97763.56
2022-08-14T10:44:38.806Z,97762.25
2022-08-14T10:48:02.592Z,97757.28
2022-08-14T10:50:51.614Z,97763.84
2022-08-14T10:53:40.417Z,97763.59
2022-08-14T10:56:35.185Z,97764.97
2022-08-14T10:59:34.892Z,97768.53
2022-08-14T11:02:44.895Z,97758.03
2022-08-14T11:05:44.452Z,97759.50
2022-08-14T11:08:35.897Z,97762.72
2022-08-14T11:11:28.470Z,97759.50
2022-08-14T11:14:26.601Z,97761.88
2022-08-14T11:17:15.919Z,97762.34
2022-08-14T11:20:14.118Z,97756.13
2022-08-14T11:23:07.250Z,97762.00
2022-08-14T11:26:01.057Z,97757.69
2022-08-14T11:28:51.607Z,97766.31
2022-08-14T11:31:40.890Z,97754.22
2022-08-14T11:34:33.806Z,97760.75
2022-08-14T11:37:35.214Z,97760.03
2022-08-14T11:40:31.239Z,97766.56
2022-08-14T11:43:29.675Z,97770.63
2022-08-14T11:46:30.716Z,97774.81
2022-08-14T11:49:34.242Z,97767.44
2022-08-14T11:52:34.195Z,97779.50
2022-08-14T11:55:34.512Z,97772.81
2022-08-14T11:58:27.788Z,97774.22
2022-08-14T12:01:16.981Z,97776.81
2022-08-14T12:04:32.377Z,97771.56
2022-08-14T12:07:21.954Z,97765.75
2022-08-14T12:10:27.145Z,97771.88
2022-08-14T12:13:22.341Z,97766.41
2022-08-14T12:16:20.620Z,97756.53
2022-08-14T12:19:11.038Z,97753.03
2022-08-14T12:22:00.118Z,97759.38
2022-08-14T12:24:52.662Z,97754.69
2022-08-14T12:27:52.719Z,97760.94
2022-08-14T12:30:44.385Z,97761.50
2022-08-14T12:33:34.556Z,97749.16
2022-08-14T12:36:23.118Z,97744.94
2022-08-14T12:39:20.898Z,97739.97
2022-08-14T12:42:11.918Z,97736.22
2022-08-14T12:45:23.995Z,97730.13
2022-08-14T12:48:21.202Z,97737.22
2022-08-14T12:51:25.209Z,97731.91
2022-08-14T12:54:26.079Z,97726.84
2022-08-14T12:57:20.351Z,97729.69
2022-08-14T13:00:22.850Z,97729.09
2022-08-14T13:03:24.688Z,97720.25
2022-08-14T13:06:15.720Z,97710.16
2022-08-14T13:09:11.101Z,97699.13
2022-08-14T13:12:34.933Z,97708.19
2022-08-14T13:15:13.564Z,97701.06
2022-08-14T13:18:04.850Z,97698.53
2022-08-14T13:21:01.030Z,97692.63
2022-08-14T13:23:50.941Z,97698.13
2022-08-14T13:26:46.531Z,97689.22
2022-08-14T13:29:43.927Z,97671.75
2022-08-14T13:32:36.614Z,97668.56
2022-08-14T13:35:25.476Z,97666.41
2022-08-14T13:38:14.305Z,97664.13
2022-08-14T13:41:06.290Z,97659.81
2022-08-14T13:43:59.774Z,97654.28
2022-08-14T13:46:48.944Z,97657.06
2022-08-14T13:49:40.462Z,97631.94
2022-08-14T13:52:59.498Z,97644.38
2022-08-14T13:55:52.130Z,97639.38
2022-08-14T13:58:46.906Z,97643.69
2022-08-14T14:01:43.343Z,97631.94
2022-08-14T14:04:33.423Z,97636.44
2022-08-14T14:07:23.402Z,97628.22
2022-08-14T14:10:13.684Z,97628.28
2022-08-14T14:13:04.567Z,97629.44
2022-08-14T14:15:58.340Z,97633.28
2022-08-14T14:18:52.164Z,97636.78
2022-08-14T14:21:41.989Z,97640.06
2022-08-14T14:24:34.632Z,97630.75
2022-08-14T14:27:42.671Z,97638.13
2022-08-14T14:30:51.967Z,97633.34
2022-08-14T14:33:48.016Z,97624.75
2022-08-14T14:36:41.727Z,97622.97
2022-08-14T14:39:37.435Z,97635.63
2022-08-14T14:42:32.433Z,97634.38
2022-08-14T14:45:24.571Z,97638.91
2022-08-14T14:48:15.571Z,97624.66
2022-08-14T14:51:04.619Z,97628.88
2022-08-14T14:53:54.611Z,97620.97
2022-08-14T14:56:52.038Z,97625.72
2022-08-14T14:59:42.612Z,97625.50
2022-08-14T15:02:41.406Z,97621.38
2022-08-14T15:05:30.649Z,97616.22
2022-08-14T15:08:26.934Z,97615.84
2022-08-14T15:11:32.291Z,97612.44
2022-08-14T15:14:54.677Z,97617.56
2022-08-14T15:17:40.861Z,97609.25
2022-08-14T15:20:31.396Z,97617.84
2022-08-14T15:23:22.417Z,97618.25
2022-08-14T15:26:23.284Z,97622.06
2022-08-14T15:29:15.407Z,97625.91
2022-08-14T15:32:04.124Z,97626.09
2022-08-14T15:34:59.290Z,97621.75
2022-08-14T15:37:55.973Z,97632.28
2022-08-14T15:40:44.662Z,97625.44
2022-08-14T15:43:40.212Z,97627.09
2022-08-14T15:46:43.042Z,97629.19
2022-08-14T15:49:35.001Z,97623.66
2022-08-14T15:52:32.376Z,97625.03
2022-08-14T15:55:24.189Z,97622.59
2022-08-14T15:58:14.328Z,97621.72
2022-08-14T16:01:50.643Z,97625.44
2022-08-14T16:04:30.818Z,97617.88
2022-08-14T16:07:22.241Z,97605.56
2022-08-14T16:10:29.338Z,97606.84
2022-08-14T16:13:20.402Z,97604.72
2022-08-14T16:16:34.940Z,97603.38
2022-08-14T16:19:47.824Z,97590.47
2022-08-14T16:23:10.503Z,97597.28
2022-08-14T16:25:46.974Z,97592.22
2022-08-14T16:28:41.393Z,97603.97
2022-08-14T16:31:36.238Z,97594.16
2022-08-14T16:34:45.643Z,97607.38
2022-08-14T16:37:35.391Z,97603.00
2022-08-14T16:43:16.142Z,97608.94
2022-08-14T16:46:05.883Z,97597.81
2022-08-14T16:48:57.711Z,97597.50
2022-08-14T16:51:52.798Z,97592.34
2022-08-14T16:54:45.195Z,97592.44
2022-08-14T16:57:34.251Z,97591.56
2022-08-14T17:00:33.033Z,97586.03
2022-08-14T17:03:40.864Z,97576.72
2022-08-14T17:06:58.462Z,97574.84
2022-08-14T17:09:49.550Z,97580.56
2022-08-14T17:12:38.066Z,97586.75
2022-08-14T17:15:27.729Z,97595.25
2022-08-14T17:18:36.308Z,97583.06
2022-08-14T17:21:31.773Z,97585.81
2022-08-14T17:24:58.415Z,97577.25
2022-08-14T17:27:31.328Z,97574.81
2022-08-14T17:30:32.276Z,97579.03
2022-08-14T17:33:26.421Z,97576.88
2022-08-14T17:36:21.180Z,97585.66
2022-08-14T17:39:12.226Z,97574.81
2022-08-14T17:42:03.616Z,97573.13
2022-08-14T17:45:03.296Z,97576.50
2022-08-14T17:47:52.425Z,97571.75
2022-08-14T17:51:00.221Z,97568.41
2022-08-14T17:53:52.609Z,97566.66
2022-08-14T17:56:42.345Z,97571.44
2022-08-14T17:59:38.428Z,97580.38
2022-08-14T18:02:31.912Z,97577.59
2022-08-14T18:05:23.420Z,97579.75
2022-08-14T18:08:33.008Z,97584.75
2022-08-14T18:11:23.832Z,97585.59
2022-08-14T18:14:20.736Z,97584.09
2022-08-14T18:17:23.308Z,97592.50
2022-08-14T18:21:24.007Z,97593.34
2022-08-14T18:23:23.344Z,97604.56
2022-08-14T18:26:36.114Z,97610.66
2022-08-14T18:29:23.542Z,97604.56
2022-08-14T18:32:56.451Z,97614.59
2022-08-14T18:35:58.712Z,97615.00
2022-08-14T18:38:59.848Z,97622.63
2022-08-14T18:41:48.972Z,97617.59
2022-08-14T18:45:12.816Z,97616.34
2022-08-14T18:48:51.093Z,97613.63
2022-08-14T18:51:46.135Z,97606.47
2022-08-14T18:54:38.724Z,97608.53
2022-08-14T18:57:40.562Z,97606.03
2022-08-14T19:00:51.094Z,97606.84
2022-08-14T19:03:48.888Z,97596.56
2022-08-14T19:06:44.610Z,97609.66
2022-08-14T19:09:53.310Z,97604.03
2022-08-14T19:13:11.927Z,97605.22
2022-08-14T19:16:07.601Z,97607.59
2022-08-14T19:19:04.106Z,97603.72
2022-08-14T19:21:58.019Z,97609.25
2022-08-14T19:24:50.165Z,97607.03
2022-08-14T19:27:41.124Z,97605.84
2022-08-14T19:30:34.886Z,97604.66
2022-08-14T19:33:51.922Z,97601.97
2022-08-14T19:37:04.329Z,97597.34
2022-08-14T19:39:56.423Z,97598.97
2022-08-14T19:42:46.749Z,97609.97
2022-08-14T19:45:36.439Z,97607.28
2022-08-14T19:48:25.507Z,97612.44
2022-08-14T19:51:15.777Z,97597.31
2022-08-14T19:54:13.279Z,97591.53
2022-08-14T19:57:05.644Z,97589.69
2022-08-14T20:00:04.659Z,97584.97
2022-08-14T20:03:11.912Z,97585.91
2022-08-14T20:06:05.590Z,97579.19
2022-08-14T20:11:01.368Z,97585.09
2022-08-14T20:12:28.678Z,97574.59
2022-08-14T20:15:47.284Z,97580.66
2022-08-14T20:18:49.440Z,97576.91
2022-08-14T20:21:57.986Z,97578.34
2022-08-14T20:24:49.919Z,97567.81
2022-08-14T20:27:40.355Z,97557.88
2022-08-14T20:30:34.028Z,97565.44
2022-08-14T20:33:25.111Z,97569.00
2022-08-14T20:36:25.935Z,97570.47
2022-08-14T20:39:15.905Z,97561.25
2022-08-14T20:42:25.864Z,97578.69
2022-08-14T20:45:19.987Z,97568.06
2022-08-14T20:48:10.112Z,97574.44
2022-08-14T20:51:23.853Z,97567.03
2022-08-14T20:54:14.681Z,97569.50
2022-08-14T20:57:08.102Z,97562.34
2022-08-14T20:59:57.589Z,97561.19
2022-08-14T21:02:50.792Z,97567.56
2022-08-14T21:05:39.513Z,97568.00
2022-08-14T21:08:35.546Z,97573.63
2022-08-14T21:11:28.192Z,97568.28
2022-08-14T21:14:24.773Z,97569.94
2022-08-14T21:17:15.280Z,97564.84
2022-08-14T21:20:25.626Z,97560.50
2022-08-14T21:23:16.168Z,97568.31
2022-08-14T21:26:06.085Z,97572.25
2022-08-14T21:28:54.611Z,97559.13
2022-08-14T21:31:55.897Z,97559.97
2022-08-14T21:34:55.294Z,97562.19
2022-08-14T21:37:47.881Z,97560.19
2022-08-14T21:40:41.537Z,97555.25
2022-08-14T21:43:32.426Z,97554.13
2022-08-14T21:46:21.256Z,97555.63
2022-08-14T21:49:15.633Z,97567.50
2022-08-14T21:52:49.723Z,97555.00
2022-08-14T21:55:23.276Z,97555.59
2022-08-14T21:58:54.505Z,97545.34
2022-08-14T22:01:21.684Z,97555.44
2022-08-14T22:04:34.462Z,97561.94
2022-08-14T22:07:21.348Z,97558.72
2022-08-14T22:10:23.050Z,97554.44
2022-08-14T22:13:13.397Z,97550.56
2022-08-14T22:16:05.480Z,97541.63
2022-08-14T22:18:54.713Z,97549.66
2022-08-14T22:21:46.129Z,97554.50
2022-08-14T22:24:38.706Z,97558.09
2022-08-14T22:27:56.348Z,97563.84
2022-08-14T22:30:47.260Z,97567.22
2022-08-14T22:33:44.287Z,97561.63
2022-08-14T22:36:50.337Z,97572.84
2022-08-14T22:40:17.523Z,97564.81
2022-08-14T22:43:00.226Z,97567.94
2022-08-14T22:45:55.079Z,97562.50
2022-08-14T22:48:46.707Z,97568.94
2022-08-14T22:51:40.466Z,97567.34
2022-08-14T22:54:52.437Z,97555.66
2022-08-14T22:57:43.469Z,97559.13
2022-08-14T23:00:33.830Z,97561.97
2022-08-14T23:03:23.000Z,97556.59
2022-08-14T23:07:01.995Z,97553.22
2022-08-14T23:09:36.255Z,97566.53
2022-08-14T23:12:34.808Z,97558.38
2022-08-14T23:15:28.996Z,97556.41
2022-08-14T23:18:25.417Z,97551.56
2022-08-14T23:21:22.089Z,97553.06
2022-08-14T23:24:14.258Z,97547.97
2022-08-14T23:27:09.093Z,97547.06
2022-08-14T23:29:58.009Z,97539.56
2022-08-14T23:32:46.953Z,97542.44
2022-08-14T23:35:59.739Z,97535.59
2022-08-14T23:38:48.538Z,97531.59
2022-08-14T23:41:46.932Z,97530.44
2022-08-14T23:44:45.762Z,97533.81
2022-08-14T23:47:51.654Z,97518.66
2022-08-14T23:50:44.530Z,97529.53
2022-08-14T23:53:47.407Z,97520.25
2022-08-14T23:56:37.243Z,97531.44
2022-08-14T23:59:31.656Z,97531.22
